Time;durP1;ratioP1;P1;durP2;ratioP2;P2;SDS_P1;SDS_P2;PMS_P1;PMS_P2;Temp;Humidity;BMP_temperature;BMP_pressure;BME280_temperature;BME280_humidity;BME280_pressure;Samples;Min_cycle;Max_cycle;Signal;HPM_P1;HPM_P2
2021/04/05 00:01:33;;;;;;;20.07;12.30;;;;;;;-144.99;87.25;52301.34;5010634;28;20215;-73
2021/04/05 00:03:59;;;;;;;19.30;12.13;;;;;;;-144.99;87.03;52323.75;5010943;28;20665;-75
2021/04/05 00:06:25;;;;;;;24.00;14.73;;;;;;;-144.99;86.98;52309.50;5009190;28;20646;-74
2021/04/05 00:08:51;;;;;;;19.33;10.97;;;;;;;-144.99;86.96;52303.38;5012160;28;20649;-73
2021/04/05 00:11:18;;;;;;;19.03;13.70;;;;;;;-144.99;86.77;52333.94;5011214;28;20210;-72
2021/04/05 00:13:45;;;;;;;22.23;13.30;;;;;;;-144.99;86.76;52305.41;5011870;28;20622;-74
2021/04/05 00:16:16;;;;;;;23.50;13.50;;;;;;;-144.99;86.57;52325.81;5000207;28;20633;-74
2021/04/05 00:18:42;;;;;;;22.83;15.00;;;;;;;-144.99;86.74;52305.41;5007917;28;20694;-75
2021/04/05 00:21:12;;;;;;;23.90;12.20;;;;;;;-144.99;86.51;52280.97;5006469;28;20617;-76
2021/04/05 00:23:38;;;;;;;17.60;13.27;;;;;;;-144.99;86.27;52297.25;5002481;28;20252;-76
2021/04/05 00:26:05;;;;;;;24.53;12.07;;;;;;;-144.99;86.06;52280.97;5007141;28;20670;-78
2021/04/05 00:28:32;;;;;;;24.73;11.23;;;;;;;-144.99;85.84;52333.94;5007421;28;20222;-77
2021/04/05 00:30:58;;;;;;;23.17;12.50;;;;;;;-144.99;85.85;52317.66;5011801;28;20621;-77
2021/04/05 00:33:25;;;;;;;20.03;12.80;;;;;;;-144.99;85.62;52325.81;5011617;28;20653;-77
2021/04/05 00:35:51;;;;;;;20.83;12.13;;;;;;;-144.99;85.48;52287.06;5009368;28;20630;-76
2021/04/05 00:38:18;;;;;;;29.23;13.00;;;;;;;-144.99;85.44;52285.03;5009722;28;20640;-78
2021/04/05 00:40:49;;;;;;;22.73;13.50;;;;;;;-144.99;85.47;52301.34;5011254;28;20206;-76
2021/04/05 00:43:16;;;;;;;23.37;11.80;;;;;;;-144.99;85.44;52256.50;5011082;28;20215;-76
2021/04/05 00:45:43;;;;;;;22.03;12.87;;;;;;;-144.99;85.40;52329.88;5010946;28;20629;-76
2021/04/05 00:48:10;;;;;;;20.10;11.70;;;;;;;-144.99;85.33;52289.13;5003719;28;20633;-75
2021/04/05 00:50:45;;;;;;;22.20;11.70;;;;;;;-144.99;85.38;52293.19;5003831;28;20617;-77
2021/04/05 00:53:13;;;;;;;17.30;11.97;;;;;;;-144.99;85.29;52301.34;4999997;28;20621;-75
2021/04/05 00:55:42;;;;;;;19.07;12.40;;;;;;;-144.99;85.12;52342.09;5007777;28;20242;-77
2021/04/05 00:58:08;;;;;;;21.30;14.37;;;;;;;-144.99;85.21;52301.34;4998559;28;20711;-76
2021/04/05 01:00:38;;;;;;;24.23;12.40;;;;;;;-144.99;85.35;52305.41;5000570;28;20198;-77
2021/04/05 01:03:06;;;;;;;21.70;12.27;;;;;;;-144.99;85.29;52252.44;5011774;28;20203;-74
2021/04/05 01:05:32;;;;;;;17.50;11.87;;;;;;;-144.99;85.35;52321.72;5011575;28;20646;-75
2021/04/05 01:07:59;;;;;;;16.57;12.43;;;;;;;-144.99;85.33;52272.81;5009490;28;20632;-76
2021/04/05 01:10:25;;;;;;;17.33;12.17;;;;;;;-144.99;85.29;52256.50;5010772;28;20649;-78
2021/04/05 01:12:52;;;;;;;20.87;14.57;;;;;;;-144.99;85.56;52285.03;5011363;28;20624;-76
2021/04/05 01:15:18;;;;;;;22.00;13.77;;;;;;;-144.99;85.65;52297.25;5011248;28;20210;-75
2021/04/05 01:17:46;;;;;;;24.40;13.43;;;;;;;-144.99;86.01;52293.19;5009551;28;21234;-75
2021/04/05 01:20:13;;;;;;;24.80;16.00;;;;;;;-144.99;86.23;52354.34;5006234;28;20653;-77
2021/04/05 01:22:42;;;;;;;24.03;14.10;;;;;;;-144.99;86.23;52297.25;5007794;28;20625;-75
2021/04/05 01:25:10;;;;;;;25.60;13.30;;;;;;;-144.99;86.34;52331.91;5019600;28;20634;-72
2021/04/05 01:27:36;;;;;;;20.70;14.33;;;;;;;-144.99;86.44;52268.72;5009401;28;20995;-72
2021/04/05 01:30:08;;;;;;;22.57;13.87;;;;;;;-144.99;86.40;52293.19;5005735;28;20696;-72
2021/04/05 01:32:34;;;;;;;21.30;14.03;;;;;;;-144.99;86.60;52289.13;5009700;28;20194;-73
2021/04/05 01:35:00;;;;;;;20.57;13.43;;;;;;;-144.99;86.84;52299.31;5010681;28;20618;-73
2021/04/05 01:37:26;;;;;;;23.37;14.00;;;;;;;-144.99;86.90;52278.91;5011207;28;20284;-74
2021/04/05 01:39:53;;;;;;;22.27;14.23;;;;;;;-144.99;87.09;52264.66;5002379;28;20270;-76
2021/04/05 01:42:19;;;;;;;20.07;11.80;;;;;;;-144.99;87.26;52285.03;5007490;28;20664;-74
2021/04/05 01:44:45;;;;;;;31.20;18.60;;;;;;;-144.99;87.42;52293.19;5011202;28;20720;-75
2021/04/05 01:47:11;;;;;;;24.53;13.67;;;;;;;-144.99;87.37;52313.56;5012095;28;20707;-73
2021/04/05 01:49:39;;;;;;;21.93;11.93;;;;;;;-144.99;87.71;52303.38;5007979;28;20223;-75
2021/04/05 01:52:19;;;;;;;25.20;15.13;;;;;;;-144.99;88.00;52301.34;5000271;28;20202;-75
2021/04/05 01:54:45;;;;;;;25.80;15.30;;;;;;;-144.99;87.88;52299.31;5005617;28;20627;-73
2021/04/05 01:57:12;;;;;;;17.77;13.00;;;;;;;-144.99;87.99;52276.88;5006357;28;20652;-72
2021/04/05 01:59:38;;;;;;;26.00;11.17;;;;;;;-144.99;88.04;52317.66;5010351;28;20231;-75
2021/04/05 02:02:06;;;;;;;23.37;12.70;;;;;;;-144.99;88.27;52329.88;5011542;28;21170;-74
2021/04/05 02:04:35;;;;;;;25.80;14.90;;;;;;;-144.99;88.23;52272.81;5013570;28;20218;-73
2021/04/05 02:07:01;;;;;;;24.97;17.07;;;;;;;-144.99;88.41;52305.41;5013209;28;20199;-73
2021/04/05 02:09:27;;;;;;;27.97;14.73;;;;;;;-144.99;88.51;52325.81;5015694;28;20253;-72
2021/04/05 02:11:55;;;;;;;23.80;14.37;;;;;;;-144.99;88.72;52293.19;5015153;28;20613;-72
2021/04/05 02:14:22;;;;;;;24.83;16.20;;;;;;;-144.99;88.74;52313.56;5014854;28;20205;-74
2021/04/05 02:16:48;;;;;;;17.50;11.07;;;;;;;-144.99;88.92;52244.28;5012119;28;20214;-74
2021/04/05 02:19:16;;;;;;;24.93;13.70;;;;;;;-144.99;89.03;52272.81;5010057;28;20223;-75
2021/04/05 02:21:46;;;;;;;30.50;15.70;;;;;;;-144.99;89.21;52342.09;5010778;28;20205;-76
2021/04/05 02:24:13;;;;;;;20.13;12.60;;;;;;;-144.99;89.08;52313.56;5017138;28;20238;-80
2021/04/05 02:26:40;;;;;;;22.93;14.73;;;;;;;-144.99;89.28;52295.22;5013089;28;20199;-76
2021/04/05 02:29:07;;;;;;;20.93;13.90;;;;;;;-144.99;89.46;52285.03;5014327;28;20223;-75
2021/04/05 02:31:38;;;;;;;24.87;13.87;;;;;;;-144.99;89.55;52289.13;5014449;28;20210;-74
2021/04/05 02:34:05;;;;;;;20.83;12.60;;;;;;;-144.99;89.65;52301.34;5014711;28;20609;-73
2021/04/05 02:36:33;;;;;;;23.97;12.37;;;;;;;-144.99;89.71;52297.25;5013273;28;20222;-72
2021/04/05 02:39:01;;;;;;;24.27;13.07;;;;;;;-144.99;89.86;52297.25;5008719;28;20230;-73
2021/04/05 02:41:29;;;;;;;25.17;13.57;;;;;;;-144.99;89.93;52272.81;5013862;28;20199;-74
2021/04/05 02:43:56;;;;;;;21.97;13.60;;;;;;;-144.99;90.29;52266.69;5014589;28;20227;-73
2021/04/05 02:46:26;;;;;;;22.23;12.87;;;;;;;-144.99;90.41;52338.03;5013729;28;20661;-73
2021/04/05 02:48:55;;;;;;;25.60;13.07;;;;;;;-144.99;90.96;52256.50;5010999;28;21507;-75
2021/04/05 02:51:22;;;;;;;25.67;13.43;;;;;;;-144.99;92.06;52309.50;5003228;28;20262;-72
2021/04/05 02:53:52;;;;;;;26.90;14.63;;;;;;;-144.99;93.07;52260.56;5007178;28;20268;-73
2021/04/05 02:56:20;;;;;;;24.27;13.30;;;;;;;-144.99;93.84;52305.41;5016156;28;20215;-72
2021/04/05 02:58:49;;;;;;;27.17;14.27;;;;;;;-144.99;94.66;52301.34;5009035;28;20674;-73
2021/04/05 03:01:15;;;;;;;20.10;13.60;;;;;;;-144.99;95.16;52260.56;5000394;28;20199;-72
2021/04/05 03:03:43;;;;;;;21.60;13.00;;;;;;;-144.99;95.46;52305.41;5014822;28;20199;-74
2021/04/05 03:06:13;;;;;;;23.17;13.97;;;;;;;-144.99;95.66;52293.19;5013894;28;20621;-72
2021/04/05 03:08:40;;;;;;;27.80;15.07;;;;;;;-144.99;96.21;52293.19;5011940;28;20222;-74
2021/04/05 03:11:06;;;;;;;23.70;12.20;;;;;;;-144.99;96.96;52311.53;5009899;28;20211;-74
2021/04/05 03:13:35;;;;;;;24.07;12.57;;;;;;;-144.99;98.04;52285.03;5012796;28;20573;-73
2021/04/05 03:16:03;;;;;;;24.40;13.10;;;;;;;-144.99;99.08;52321.72;5011648;28;20222;-75
2021/04/05 03:18:31;;;;;;;30.47;12.97;;;;;;;-144.99;100.00;52268.72;5009559;28;21238;-72
2021/04/05 03:20:58;;;;;;;23.93;13.50;;;;;;;-144.99;100.00;52285.03;5006564;28;20660;-73
2021/04/05 03:23:25;;;;;;;25.13;14.70;;;;;;;-144.99;100.00;52287.06;5011290;28;20606;-72
2021/04/05 03:25:52;;;;;;;19.67;13.00;;;;;;;-144.99;100.00;52285.03;5011303;28;20635;-72
2021/04/05 03:28:18;;;;;;;22.77;13.17;;;;;;;-144.99;100.00;52305.41;5011443;28;20215;-74
2021/04/05 03:30:47;;;;;;;24.57;14.17;;;;;;;-144.99;100.00;52280.97;5002138;28;20637;-75
2021/04/05 03:33:17;;;;;;;19.90;12.40;;;;;;;-144.99;100.00;52289.13;5012290;28;20621;-73
2021/04/05 03:35:47;;;;;;;22.37;13.00;;;;;;;-144.99;100.00;52317.66;5012234;28;20621;-74
2021/04/05 03:38:15;;;;;;;20.43;12.37;;;;;;;-144.99;100.00;52289.13;5011848;28;20628;-74
2021/04/05 03:40:44;;;;;;;17.37;12.17;;;;;;;-144.99;100.00;52285.03;5009771;28;20622;-72
2021/04/05 03:43:16;;;;;;;19.97;10.87;;;;;;;-144.99;100.00;52297.25;5012065;28;21190;-74
2021/04/05 03:45:45;;;;;;;22.00;13.30;;;;;;;-144.99;100.00;52293.19;5011568;28;21252;-75
2021/04/05 03:48:18;;;;;;;20.90;10.57;;;;;;;-144.99;100.00;52297.25;5010863;28;20606;-74
2021/04/05 03:50:49;;;;;;;11.40;5.83;;;;;;;-144.99;100.00;52313.56;5009663;28;20642;-70
2021/04/05 03:53:22;;;;;;;10.10;3.27;;;;;;;-144.99;100.00;52295.22;5008680;28;20611;-74
2021/04/05 03:55:56;;;;;;;6.30;1.77;;;;;;;-144.99;100.00;52291.16;5007235;28;20622;-72
2021/04/05 03:58:25;;;;;;;1.53;0.90;;;;;;;-144.99;100.00;52293.19;5010441;28;20652;-74
2021/04/05 04:00:53;;;;;;;0.90;0.63;;;;;;;-144.99;100.00;52321.72;5001364;28;20709;-71
2021/04/05 04:03:29;;;;;;;1.27;0.40;;;;;;;-144.99;100.00;52333.94;5010508;28;20632;-72
2021/04/05 04:06:01;;;;;;;0.73;0.50;;;;;;;-144.99;100.00;52329.88;5010290;28;20628;-71
2021/04/05 04:08:34;;;;;;;1.40;0.43;;;;;;;-144.99;100.00;52325.81;5010821;28;21178;-73
2021/04/05 04:11:05;;;;;;;2.67;0.63;;;;;;;-144.99;100.00;52301.34;5005514;28;20649;-72
2021/04/05 04:13:35;;;;;;;1.50;0.77;;;;;;;-144.99;100.00;52299.31;5001715;28;20998;-73
2021/04/05 04:16:02;;;;;;;3.30;0.93;;;;;;;-144.99;100.00;52325.81;5011202;28;20691;-74
2021/04/05 04:18:30;;;;;;;2.53;1.43;;;;;;;-144.99;100.00;52301.34;5010282;28;21222;-74
2021/04/05 04:20:56;;;;;;;5.40;3.60;;;;;;;-144.99;100.00;52344.16;5005681;28;20641;-75
2021/04/05 04:23:23;;;;;;;8.07;1.10;;;;;;;-144.99;100.00;52301.34;4999178;28;20618;-74
2021/04/05 04:25:53;;;;;;;2.00;0.90;;;;;;;-144.99;100.00;52317.66;5009272;28;20661;-73
2021/04/05 04:28:21;;;;;;;4.73;2.10;;;;;;;-144.99;100.00;52299.31;5013335;28;20637;-73
2021/04/05 04:30:54;;;;;;;4.07;1.83;;;;;;;-144.99;100.00;52301.34;5012634;28;20657;-76
2021/04/05 04:33:20;;;;;;;4.80;1.80;;;;;;;-144.99;100.00;52280.97;5012099;28;20645;-73
2021/04/05 04:35:46;;;;;;;1.03;0.93;;;;;;;-144.99;100.00;52366.56;5010791;28;20625;-72
2021/04/05 04:38:13;;;;;;;2.33;0.97;;;;;;;-144.99;100.00;52317.66;5010140;28;20278;-73
2021/04/05 04:40:39;;;;;;;5.10;1.27;;;;;;;-144.99;100.00;52331.91;5011251;28;20641;-74
2021/04/05 04:43:07;;;;;;;5.70;1.30;;;;;;;-144.99;100.00;52311.53;5001142;28;21175;-75
2021/04/05 04:45:34;;;;;;;2.57;0.70;;;;;;;-144.99;100.00;52325.81;5010620;28;20214;-74
2021/04/05 04:48:00;;;;;;;9.17;1.17;;;;;;;-144.99;100.00;52329.88;5009997;28;21175;-74
2021/04/05 04:50:28;;;;;;;5.87;2.93;;;;;;;-144.99;100.00;52309.50;5010958;28;20642;-74
2021/04/05 04:52:55;;;;;;;4.70;1.60;;;;;;;-144.99;100.00;52309.50;4996926;28;20724;-73
2021/04/05 04:55:21;;;;;;;3.13;1.50;;;;;;;-144.99;100.00;52280.97;5007399;28;20622;-74
2021/04/05 04:57:47;;;;;;;1.97;1.17;;;;;;;-144.99;100.00;52297.25;5010563;28;20613;-74
2021/04/05 05:00:14;;;;;;;4.83;1.00;;;;;;;-144.99;100.00;52309.50;5010540;28;20654;-73
2021/04/05 05:02:45;;;;;;;2.57;2.27;;;;;;;-144.99;100.00;52329.88;5037084;23;20680;-76
2021/04/05 05:05:15;;;;;;;3.53;1.13;;;;;;;-144.99;100.00;52346.19;5026413;28;20662;-76
2021/04/05 05:07:41;;;;;;;3.70;1.10;;;;;;;-144.99;100.00;52297.25;5028098;28;20625;-77
2021/04/05 05:10:10;;;;;;;7.27;2.70;;;;;;;-144.99;100.00;52342.09;5034121;28;20666;-76
2021/04/05 05:12:37;;;;;;;2.90;1.30;;;;;;;-144.99;99.93;52309.50;5031108;28;21190;-77
2021/04/05 05:15:06;;;;;;;4.80;1.57;;;;;;;-144.99;99.80;52305.41;5032519;28;20686;-76
2021/04/05 05:17:33;;;;;;;14.97;2.03;;;;;;;-144.99;99.92;52331.91;5014884;28;20625;-77
2021/04/05 05:20:01;;;;;;;10.17;2.83;;;;;;;-144.99;99.72;52323.75;5029272;28;20687;-77
2021/04/05 05:22:28;;;;;;;9.03;2.47;;;;;;;-144.99;99.33;52307.47;5035735;28;20601;-78
2021/04/05 05:24:57;;;;;;;5.73;2.73;;;;;;;-144.99;99.09;52338.03;5025140;28;20946;-78
2021/04/05 05:27:26;;;;;;;8.43;4.40;;;;;;;-144.99;99.46;52336.00;5024475;28;20625;-78
2021/04/05 05:29:52;;;;;;;5.93;1.87;;;;;;;-144.99;99.06;52305.41;5033019;28;20621;-77
2021/04/05 05:32:18;;;;;;;7.07;1.30;;;;;;;-144.99;98.73;52321.72;5034138;28;20964;-76
2021/04/05 05:34:46;;;;;;;12.50;2.07;;;;;;;-144.99;99.06;52311.53;5029957;28;20629;-79
2021/04/05 05:37:14;;;;;;;4.30;1.60;;;;;;;-144.99;99.50;52264.66;5033885;28;20597;-79
2021/04/05 05:39:41;;;;;;;7.00;1.27;;;;;;;-144.99;99.83;52336.00;5035234;28;20759;-77
2021/04/05 05:42:13;;;;;;;3.57;2.20;;;;;;;-144.99;98.59;52325.81;5031133;28;20934;-78
2021/04/05 05:44:46;;;;;;;12.93;2.70;;;;;;;-144.99;98.89;52307.47;5031439;28;21244;-76
2021/04/05 05:47:23;;;;;;;6.80;1.63;;;;;;;-144.99;98.90;52305.41;5032275;28;20743;-73
2021/04/05 05:49:56;;;;;;;9.33;1.93;;;;;;;-144.99;99.06;52325.81;5032473;28;20670;-73
2021/04/05 05:52:38;;;;;;;10.97;1.77;;;;;;;-144.99;98.67;52317.66;5032067;28;20620;-74
2021/04/05 05:55:25;;;;;;;4.63;1.57;;;;;;;-144.99;98.70;52309.50;5030666;28;20632;-75
2021/04/05 05:58:02;;;;;;;8.57;2.20;;;;;;;-144.99;98.76;52362.50;5033745;28;20621;-73
2021/04/05 06:00:33;;;;;;;7.27;1.60;;;;;;;-144.99;98.73;52333.94;5033772;28;20612;-73
2021/04/05 06:03:11;;;;;;;6.07;2.33;;;;;;;-144.99;98.33;52317.66;5031982;28;20652;-73
2021/04/05 06:05:43;;;;;;;8.53;1.47;;;;;;;-144.99;97.62;52305.41;5030302;28;21057;-77
2021/04/05 06:08:25;;;;;;;5.00;1.30;;;;;;;-144.99;97.16;52317.66;5031847;28;20625;-75
2021/04/05 06:11:00;;;;;;;4.37;1.67;;;;;;;-144.99;97.62;52321.72;5031874;28;20658;-75
2021/04/05 06:13:36;;;;;;;10.40;4.20;;;;;;;-144.99;97.34;52289.13;5033834;28;20656;-74
2021/04/05 06:16:14;;;;;;;3.70;1.33;;;;;;;-144.99;96.67;52285.03;5030009;28;21331;-73
2021/04/05 06:18:49;;;;;;;4.70;1.70;;;;;;;-144.99;95.65;52317.66;5028708;28;20714;-74
2021/04/05 06:21:29;;;;;;;6.37;2.07;;;;;;;-144.99;95.29;52366.56;5025163;28;20747;-74
2021/04/05 06:24:02;;;;;;;6.30;2.37;;;;;;;-144.99;93.86;52325.81;5032738;28;20664;-74
2021/04/05 06:26:43;;;;;;;8.90;3.13;;;;;;;-144.99;93.17;52319.69;5031323;28;20631;-71
2021/04/05 06:29:17;;;;;;;6.70;1.33;;;;;;;-144.99;93.66;52342.09;5031553;28;20661;-73
2021/04/05 06:31:56;;;;;;;6.80;1.47;;;;;;;-144.99;94.69;52321.72;5030563;28;20657;-73
2021/04/05 06:34:30;;;;;;;3.70;1.27;;;;;;;-144.99;95.65;52317.66;5030404;28;20640;-74
2021/04/05 06:37:06;;;;;;;10.43;2.10;;;;;;;-144.99;96.38;52325.81;5028546;28;20628;-73
2021/04/05 06:39:37;;;;;;;5.70;1.33;;;;;;;-144.99;96.78;52354.34;5030710;28;20991;-74
2021/04/05 06:42:22;;;;;;;9.20;1.97;;;;;;;-144.99;96.67;52325.81;5031567;28;20625;-76
2021/04/05 06:45:20;;;;;;;5.90;2.20;;;;;;;-144.99;96.95;52301.34;5030988;28;21245;-75
2021/04/05 06:48:28;;;;;;;5.97;2.13;;;;;;;-144.99;96.95;52309.50;5030175;28;20640;-73
2021/04/05 06:51:02;;;;;;;8.73;1.27;;;;;;;-144.99;97.12;52317.66;5030899;28;20620;-76
2021/04/05 06:53:58;;;;;;;4.63;2.30;;;;;;;-144.99;97.65;52305.41;5032911;28;20641;-73
2021/04/05 06:56:32;;;;;;;3.97;1.37;;;;;;;-144.99;97.96;52333.94;5035384;28;20653;-74
2021/04/05 06:59:21;;;;;;;7.17;2.37;;;;;;;-144.99;97.62;52327.84;5035866;28;20624;-80
2021/04/05 07:01:56;;;;;;;8.07;2.33;;;;;;;-144.99;97.53;52307.47;5039234;28;20625;-74
2021/04/05 07:04:44;;;;;;;5.03;3.03;;;;;;;-144.99;97.28;52313.56;5037845;28;20680;-75
2021/04/05 07:07:18;;;;;;;6.63;1.30;;;;;;;-144.99;97.03;52268.72;5037732;28;20635;-76
2021/04/05 07:09:52;;;;;;;6.27;1.40;;;;;;;-144.99;96.98;52325.81;5036673;28;20624;-74
2021/04/05 07:12:52;;;;;;;7.43;1.60;;;;;;;-144.99;95.93;52319.69;5037050;28;20612;-73
2021/04/05 07:15:34;;;;;;;9.50;2.00;;;;;;;-144.99;96.34;52358.41;5024705;28;21270;-74
2021/04/05 07:18:11;;;;;;;2.10;0.90;;;;;;;-144.99;95.70;52280.97;5032245;28;20911;-73
2021/04/05 07:20:47;;;;;;;5.67;0.83;;;;;;;-144.99;93.53;52333.94;5026031;28;21193;-75
2021/04/05 07:23:27;;;;;;;10.97;1.60;;;;;;;-144.99;92.79;52285.03;5034487;28;20695;-73
2021/04/05 07:26:04;;;;;;;6.63;1.40;;;;;;;-144.99;92.73;52305.41;5034430;28;20663;-72
2021/04/05 07:28:40;;;;;;;8.93;2.37;;;;;;;-144.99;93.14;52333.94;5031493;28;20624;-72
2021/04/05 07:31:17;;;;;;;6.67;1.43;;;;;;;-144.99;90.51;52289.13;5031129;28;20656;-75
2021/04/05 07:33:45;;;;;;;6.10;1.60;;;;;;;-144.99;90.97;52297.25;5033279;28;20663;-74
2021/04/05 07:36:26;;;;;;;5.27;1.50;;;;;;;-144.99;91.49;52278.91;5033200;28;20635;-75
2021/04/05 07:39:00;;;;;;;2.83;1.20;;;;;;;-144.99;91.00;52276.88;5029981;28;20639;-76
2021/04/05 07:41:33;;;;;;;4.37;1.40;;;;;;;-144.99;89.67;52291.16;5033564;28;20616;-75
2021/04/05 07:44:16;;;;;;;7.17;2.87;;;;;;;-144.99;88.41;52264.66;5032278;28;20651;-76
2021/04/05 07:46:48;;;;;;;1.97;1.27;;;;;;;-144.99;87.08;52289.13;5031886;28;20624;-74
2021/04/05 07:49:20;;;;;;;12.40;1.83;;;;;;;-144.99;86.84;52309.50;5029509;28;20641;-75
2021/04/05 07:51:53;;;;;;;5.07;2.43;;;;;;;-144.99;83.78;52240.19;5025023;28;20641;-77
2021/04/05 07:54:21;;;;;;;4.73;0.97;;;;;;;-144.99;83.96;52293.19;5030273;28;20656;-76
2021/04/05 07:57:07;;;;;;;1.43;0.60;;;;;;;-144.99;85.13;52346.19;5030991;28;20674;-76
2021/04/05 07:59:44;;;;;;;1.43;0.50;;;;;;;-144.99;85.33;52342.09;5033727;28;20632;-75
2021/04/05 08:02:24;;;;;;;1.47;0.90;;;;;;;-144.99;85.33;52329.88;5040951;28;20613;-76
2021/04/05 08:05:00;;;;;;;0.90;0.40;;;;;;;-144.99;86.01;52338.03;5040146;28;20655;-75
2021/04/05 08:07:32;;;;;;;0.40;0.20;;;;;;;-144.99;88.14;52285.03;5037547;28;21484;-72
2021/04/05 08:10:07;;;;;;;2.80;0.60;;;;;;;-144.99;89.37;52321.72;5043594;28;20632;-79
2021/04/05 08:12:42;;;;;;;0.57;0.40;;;;;;;-144.99;90.00;52346.19;5050569;28;20632;-74
2021/04/05 08:15:20;;;;;;;1.50;0.40;;;;;;;-144.99;91.18;52333.94;5036345;28;20639;-77
2021/04/05 08:18:08;;;;;;;1.57;0.70;;;;;;;-144.99;89.60;52293.19;5030337;28;20641;-74
2021/04/05 08:20:38;;;;;;;1.60;0.30;;;;;;;-144.99;89.07;52309.50;5019170;28;20633;-75
2021/04/05 08:23:15;;;;;;;2.17;0.60;;;;;;;-144.99;89.69;52395.09;5032391;28;21245;-74
2021/04/05 08:25:56;;;;;;;2.83;0.83;;;;;;;-144.99;89.81;52319.69;5034121;28;20660;-74
2021/04/05 08:28:29;;;;;;;3.30;0.87;;;;;;;-144.99;90.30;52305.41;5030055;28;20694;-74
2021/04/05 08:31:12;;;;;;;1.43;0.77;;;;;;;-144.99;90.69;52313.56;5028229;28;21197;-75
2021/04/05 08:33:50;;;;;;;0.80;0.60;;;;;;;-144.99;91.75;52350.25;5032139;28;20756;-75
2021/04/05 08:36:28;;;;;;;3.90;1.30;;;;;;;-144.99;92.05;52285.03;5049294;28;20634;-74
2021/04/05 08:39:03;;;;;;;6.60;1.20;;;;;;;-144.99;90.05;52309.50;5051667;28;20624;-77
2021/04/05 08:41:41;;;;;;;1.53;0.80;;;;;;;-144.99;89.70;52352.28;5052646;28;20873;-74
2021/04/05 08:44:14;;;;;;;9.07;1.67;;;;;;;-144.99;88.82;52309.50;5045750;28;20701;-76
2021/04/05 08:46:41;;;;;;;3.60;1.13;;;;;;;-144.99;86.23;52264.66;5047856;28;20613;-77
2021/04/05 08:49:11;;;;;;;2.47;1.03;;;;;;;-144.99;86.98;52329.88;5048290;28;20630;-80
2021/04/05 08:51:42;;;;;;;5.60;1.67;;;;;;;-144.99;83.82;52342.09;5046830;28;20621;-76
2021/04/05 08:54:11;;;;;;;4.67;1.30;;;;;;;-144.99;82.05;52303.38;5031926;28;20640;-77
2021/04/05 08:56:41;;;;;;;4.70;1.43;;;;;;;-144.99;82.39;52305.41;5031487;28;20617;-75
2021/04/05 08:59:11;;;;;;;9.30;2.70;;;;;;;-144.99;81.37;52280.97;5030874;28;21204;-75
2021/04/05 09:01:45;;;;;;;9.50;3.80;;;;;;;-144.99;79.67;52329.88;5030357;28;20628;-75
2021/04/05 09:04:13;;;;;;;6.13;1.93;;;;;;;-144.99;79.23;52260.56;5033476;28;20652;-75
2021/04/05 09:06:50;;;;;;;3.30;1.10;;;;;;;-144.99;76.74;52313.56;5031099;28;20624;-77
2021/04/05 09:09:17;;;;;;;9.10;1.70;;;;;;;-144.99;77.26;52325.81;5029075;28;20644;-74
2021/04/05 09:11:44;;;;;;;7.07;2.03;;;;;;;-144.99;75.95;52301.34;5018965;28;21182;-73
2021/04/05 09:14:14;;;;;;;7.43;2.33;;;;;;;-144.99;73.48;52268.72;5033903;28;21245;-75
2021/04/05 09:16:56;;;;;;;6.40;1.67;;;;;;;-144.99;70.94;52248.34;5032272;28;20668;-73
2021/04/05 09:19:55;;;;;;;8.20;1.70;;;;;;;-144.99;68.48;52260.56;5024084;28;20644;-77
2021/04/05 09:22:35;;;;;;;12.00;5.67;;;;;;;-144.99;67.73;52291.16;5029723;28;20633;-74
2021/04/05 09:25:31;;;;;;;6.07;2.00;;;;;;;-144.99;63.87;52272.81;5030636;28;21248;-75
2021/04/05 09:28:03;;;;;;;14.17;2.37;;;;;;;-144.99;64.63;52305.41;5033296;28;20623;-76
2021/04/05 09:31:09;;;;;;;2.53;1.33;;;;;;;-144.99;63.55;52244.28;5030913;28;20257;-75
2021/04/05 09:34:11;;;;;;;5.50;1.90;;;;;;;-144.99;64.15;52301.34;5034288;28;20775;-77
2021/04/05 09:37:07;;;;;;;11.17;7.90;;;;;;;-144.99;63.77;52299.31;5031167;28;20693;-78
2021/04/05 09:39:45;;;;;;;5.67;1.57;;;;;;;-144.99;63.15;52329.88;5007660;28;20651;-75
2021/04/05 09:42:32;;;;;;;7.30;1.43;;;;;;;-144.99;58.67;52297.25;5029454;28;20209;-76
2021/04/05 09:45:22;;;;;;;4.10;1.10;;;;;;;-144.99;53.76;52305.41;5031402;28;20661;-76
2021/04/05 09:48:21;;;;;;;14.80;2.53;;;;;;;-144.99;52.57;52297.25;5028661;28;20637;-76
2021/04/05 09:51:11;;;;;;;4.93;1.77;;;;;;;-144.99;53.02;52301.34;5028150;28;20621;-75
2021/04/05 09:53:53;;;;;;;3.77;1.30;;;;;;;-144.99;53.09;52262.63;5026128;28;20959;-74
2021/04/05 09:56:21;;;;;;;6.93;1.63;;;;;;;-144.99;52.01;52305.41;5030624;28;20682;-76
2021/04/05 09:58:52;;;;;;;9.23;2.83;;;;;;;-144.99;51.27;52252.44;5032568;28;20686;-77
2021/04/05 10:01:23;;;;;;;5.33;2.93;;;;;;;-144.99;49.55;52240.19;5033085;28;21201;-75
2021/04/05 10:03:53;;;;;;;10.57;4.10;;;;;;;-144.99;48.29;52236.13;5032839;28;20668;-75
2021/04/05 10:06:20;;;;;;;6.50;3.40;;;;;;;-144.99;48.06;52256.50;5033376;28;20222;-74
2021/04/05 10:08:49;;;;;;;9.53;1.97;;;;;;;-144.99;48.00;52227.97;5033296;28;20209;-76
2021/04/05 10:11:16;;;;;;;6.40;1.57;;;;;;;-144.99;46.05;52199.44;5030995;28;20205;-76
2021/04/05 10:13:45;;;;;;;9.53;3.43;;;;;;;-144.99;44.77;52260.56;5032587;28;20250;-79
2021/04/05 10:16:14;;;;;;;11.83;2.60;;;;;;;-144.99;43.67;52197.41;5031279;28;20211;-78
2021/04/05 10:18:48;;;;;;;10.23;2.03;;;;;;;-144.99;42.18;52203.50;5027766;28;20228;-77
2021/04/05 10:21:14;;;;;;;4.13;1.03;;;;;;;-144.99;41.86;52219.81;5030769;28;20194;-77
2021/04/05 10:23:42;;;;;;;5.77;1.57;;;;;;;-144.99;42.11;52250.38;5030701;28;20231;-76
2021/04/05 10:26:10;;;;;;;8.60;2.13;;;;;;;-144.99;42.47;52199.44;5034553;28;20230;-74
2021/04/05 10:28:38;;;;;;;6.43;1.63;;;;;;;-144.99;44.13;52258.53;5035021;28;20263;-76
2021/04/05 10:31:08;;;;;;;5.17;1.83;;;;;;;-144.99;43.66;52152.56;5035456;28;20229;-75
2021/04/05 10:33:37;;;;;;;6.87;1.57;;;;;;;-144.99;43.70;52166.81;5035211;28;20857;-78
2021/04/05 10:36:06;;;;;;;7.80;4.50;;;;;;;-144.99;42.51;52179.06;5034160;28;20190;-75
2021/04/05 10:38:35;;;;;;;4.20;1.50;;;;;;;-144.99;41.44;52138.28;5024729;28;20578;-77
2021/04/05 10:41:01;;;;;;;10.40;2.00;;;;;;;-144.99;40.22;52166.81;5032997;28;20214;-74
2021/04/05 10:43:36;;;;;;;3.90;1.63;;;;;;;-144.99;40.62;52064.91;5026047;28;20222;-77
2021/04/05 10:46:06;;;;;;;8.87;1.57;;;;;;;-144.99;37.81;52109.75;5026056;28;20363;-79
2021/04/05 10:48:43;;;;;;;14.87;2.73;;;;;;;-144.99;37.12;52105.69;5028933;28;20202;-74
2021/04/05 10:51:14;;;;;;;9.17;1.60;;;;;;;-144.99;37.16;52215.75;5027937;28;20584;-77
2021/04/05 10:53:43;;;;;;;9.23;2.80;;;;;;;-144.99;38.43;52162.75;5024710;28;20272;-77
2021/04/05 10:56:10;;;;;;;8.47;2.33;;;;;;;-144.99;38.15;52109.75;5033163;28;20213;-76
2021/04/05 10:58:44;;;;;;;9.30;2.63;;;;;;;-144.99;38.33;52081.22;5028182;28;20199;-78
2021/04/05 11:01:13;;;;;;;6.20;1.23;;;;;;;-144.99;36.77;52109.75;5032071;28;20202;-76
2021/04/05 11:03:45;;;;;;;3.20;2.07;;;;;;;-144.99;37.17;52089.38;5030583;28;20226;-77
2021/04/05 11:06:14;;;;;;;4.70;2.67;;;;;;;-144.99;36.80;52089.38;5036052;28;20221;-78
2021/04/05 11:08:41;;;;;;;5.83;1.07;;;;;;;-144.99;37.39;52293.19;5032973;28;20202;-75
2021/04/05 11:11:11;;;;;;;8.10;1.70;;;;;;;-144.99;38.24;52260.56;5040251;28;20231;-80
2021/04/05 11:13:42;;;;;;;5.70;1.50;;;;;;;-144.99;42.87;52276.88;5033322;28;20225;-77
2021/04/05 11:16:10;;;;;;;12.97;3.40;;;;;;;-144.99;45.14;52297.25;5033141;28;20195;-76
2021/04/05 11:18:45;;;;;;;5.80;1.57;;;;;;;-144.99;45.61;52109.75;5026981;28;20210;-76
2021/04/05 11:21:14;;;;;;;13.03;2.50;;;;;;;-144.99;44.83;52191.28;5052975;23;20273;-75
2021/04/05 11:23:40;;;;;;;5.30;1.73;;;;;;;-144.99;46.86;52309.50;5028392;28;20191;-77
2021/04/05 11:26:09;;;;;;;2.13;0.73;;;;;;;-144.99;49.35;52327.84;5024354;28;20214;-76
2021/04/05 11:28:37;;;;;;;3.70;0.70;;;;;;;-144.99;51.48;52325.81;5019514;28;20226;-74
2021/04/05 11:31:08;;;;;;;2.20;0.97;;;;;;;-144.99;51.10;52313.56;5034857;28;20217;-75